Currently N/A°F in Riverside (Orangecrest), California, USA
N/A°F Alert
N/A°F / N/A°F
N/A
N/A
Wednesday, February 21, 2018 8:34 PM PST

Riverside (Orangecrest), California Weather Summary
Last 36 Hours

Temperature Winds Hourly Humidity Dewpoint
Time Report Norm Report Norm Max Gusts Precip. Rpt. Norm Rpt. Norm Pressure
1Mon 12:43 PM  49.9°F  64°F  10 mph NW  5 mph  25 mph  0.00"  20%  24%  9°F  25°F  29.87"
2Mon 12:14 PM  50.6°F  64°F  11 mph W  5 mph  22 mph  ----  19%  24%  8°F  25°F  29.88"
Mon 12:00 PM  50.2°F  64°F  13 mph NW  7 mph  25 mph  0.00"  19%  24%  7°F  25°F  29.89"
Mon 11:00 AM  48.4°F  62°F  11 mph NW  8 mph  23 mph  0.00"  21%  26%  8°F  25°F  29.91"
Mon 10:00 AM  48.4°F  60°F  11 mph W  5 mph  23 mph  0.00"  21%  29%  8°F  26°F  29.92"
Mon 09:00 AM  46.5°F  56°F  8 mph W  3 mph  22 mph  0.00"  27%  38%  12°F  30°F  29.90"
Mon 08:00 AM  45.7°F  53°F  10 mph SW  1 mph  17 mph  0.00"  74%  44%  38°F  30°F  29.88"
3Mon 07:24 AM  44.1°F  50°F  8 mph SW  2 mph  13 mph  ----  81%  45%  38°F  29°F  29.86"
Mon 07:00 AM  45.1°F  50°F  4 mph SW  2 mph  7 mph  0.00"  66%  45%  34°F  29°F  29.85"
Mon 06:00 AM  45.4°F  49°F  calm  3 mph  4 mph  0.00"  69%  49%  35°F  30°F  29.84"
Mon 05:00 AM  45.5°F  51°F  calm  2 mph  6 mph  0.00"  70%  46%  36°F  30°F  29.83"
Mon 04:00 AM  45.4°F  50°F  5 mph SW  2 mph  12 mph  0.00"  79%  49%  39°F  31°F  29.83"
Mon 03:00 AM  46.0°F  53°F  5 mph SW  1 mph  14 mph  0.00"  84%  44%  41°F  31°F  29.84"
Mon 02:00 AM  48.7°F  53°F  3 mph SW  1 mph  1 mph  0.00"  78%  44%  42°F  30°F  29.83"
Mon 01:00 AM  48.6°F  53°F  calm  2 mph  4 mph  0.00"  77%  42%  41°F  30°F  29.86"
Mon 12:00 AM  48.4°F  55°F  calm  1 mph  4 mph  0.00"  82%  42%  43°F  31°F  29.88"
Sun 11:00 PM  48.7°F  55°F  calm  2 mph  3 mph  0.00"  82%  42%  43°F  31°F  29.90"
Sun 10:00 PM  49.1°F  55°F  2 mph SW  4 mph  7 mph  0.00"  84%  42%  44°F  31°F  29.90"
Sun 09:00 PM  49.0°F  56°F  3 mph SW  2 mph  9 mph  0.00"  85%  40%  45°F  31°F  29.90"
Sun 08:00 PM  50.5°F  58°F  5 mph SW  3 mph  8 mph  0.00"  71%  36%  41°F  30°F  29.91"
Sun 07:00 PM  54.7°F  59°F  calm  4 mph  7 mph  0.00"  46%  31%  33°F  28°F  29.91"
Sun 06:00 PM  57.3°F  62°F  1 mph SW  4 mph  9 mph  0.00"  44%  27%  35°F  26°F  29.91"
Sun 05:00 PM  59.5°F  64°F  6 mph SW  6 mph  15 mph  0.00"  38%  25%  33°F  25°F  29.90"
Sun 04:00 PM  62.1°F  65°F  7 mph S  5 mph  16 mph  0.00"  30%  24%  29°F  26°F  29.90"
Sun 03:00 PM  64.2°F  66°F  5 mph S  2 mph  14 mph  0.00"  34%  22%  34°F  25°F  29.91"
Sun 02:00 PM  63.6°F  65°F  4 mph S  2 mph  12 mph  0.00"  36%  24%  35°F  25°F  29.93"
Sun 01:00 PM  62.3°F  63°F  1 mph S  5 mph  11 mph  0.00"  34%  25%  33°F  26°F  29.96"
Sun 12:00 PM  62.9°F  63°F  3 mph S  7 mph  10 mph  0.00"  33%  25%  33°F  25°F  30.00"
Sun 11:00 AM  61.1°F  61°F  6 mph S  8 mph  22 mph  0.00"  37%  27%  33°F  25°F  30.02"
Sun 10:00 AM  58.7°F  59°F  2 mph W  5 mph  7 mph  0.00"  37%  32%  31°F  28°F  30.03"
Sun 09:00 AM  53.9°F  56°F  5 mph W  2 mph  6 mph  0.00"  41%  43%  30°F  33°F  30.03"
Sun 08:00 AM  50.7°F  52°F  3 mph W  1 mph  6 mph  0.00"  45%  49%  29°F  33°F  30.04"
Sun 07:00 AM  47.6°F  49°F  calm  2 mph  5 mph  0.00"  48%  52%  28°F  31°F  30.03"
Sun 06:00 AM  46.5°F  49°F  2 mph W  3 mph  5 mph  0.00"  51%  55%  29°F  33°F  30.02"
Sun 05:00 AM  49.0°F  50°F  1 mph W  2 mph  4 mph  0.00"  47%  53%  29°F  33°F  30.03"
Sun 04:00 AM  50.7°F  49°F  3 mph W  2 mph  5 mph  0.00"  47%  57%  30°F  33°F  30.03"
Sun 03:00 AM  53.8°F  50°F  3 mph W  1 mph  3 mph  0.00"  43%  53%  31°F  33°F  30.04"
Sun 02:00 AM  52.0°F  51°F  2 mph W  1 mph  3 mph  0.00"  47%  52%  31°F  33°F  30.06"
Sun 01:00 AM  53.4°F  52°F  calm  2 mph  2 mph  0.00"  44%  49%  31°F  32°F  30.06"

  1. Current weather data. No green row appears if the current weather data is also the high or low for the current day.
  2. High temperature for the current day.
  3. Low temperature for the current day.

The Riverside (Orangecrest), California weather pages are a service of WeatherCurrents.
Copyright ©Wed Feb 21 20:34:29 PST 2018  WeatherCurrents. All rights reserved. - Submit questions and comments - Privacy Policy

This page automatically refreshes every 10 minutes.